createdAt,value
2022-10-26T00:01:14.357Z,7.20
2022-10-26T00:03:43.127Z,7.20
2022-10-26T00:06:11.585Z,7.70
2022-10-26T00:08:38.946Z,7.50
2022-10-26T00:11:09.485Z,7.40
2022-10-26T00:13:37.539Z,7.30
2022-10-26T00:16:13.910Z,7.30
2022-10-26T00:18:41.354Z,7.10
2022-10-26T00:21:10.448Z,7.00
2022-10-26T00:23:38.086Z,7.00
2022-10-26T00:26:05.965Z,6.90
2022-10-26T00:28:33.310Z,6.80
2022-10-26T00:31:06.132Z,6.80
2022-10-26T00:33:33.606Z,6.70
2022-10-26T00:36:01.084Z,6.70
2022-10-26T00:38:28.644Z,6.70
2022-10-26T00:43:28.055Z,6.70
2022-10-26T00:45:57.245Z,6.60
2022-10-26T00:48:35.382Z,6.60
2022-10-26T00:51:21.003Z,6.60
2022-10-26T00:53:48.693Z,6.60
2022-10-26T00:56:16.407Z,6.70
2022-10-26T00:58:44.313Z,6.80
2022-10-26T01:01:11.662Z,7.50
2022-10-26T01:03:39.674Z,7.20
2022-10-26T01:06:07.976Z,7.20
2022-10-26T01:08:35.394Z,7.10
2022-10-26T01:11:03.950Z,7.00
2022-10-26T01:13:34.254Z,6.90
2022-10-26T01:16:20.463Z,6.80
2022-10-26T01:18:53.624Z,6.70
2022-10-26T01:21:37.250Z,6.80
2022-10-26T01:24:10.496Z,6.70
2022-10-26T01:26:40.379Z,6.90
2022-10-26T01:29:29.023Z,6.80
2022-10-26T01:32:12.858Z,6.80
2022-10-26T01:35:09.362Z,6.90
2022-10-26T01:37:43.427Z,6.90
2022-10-26T01:40:16.112Z,6.90
2022-10-26T01:42:48.310Z,7.10
2022-10-26T01:45:16.868Z,7.20
2022-10-26T01:47:46.038Z,7.30
2022-10-26T01:50:13.887Z,7.30
2022-10-26T01:52:41.258Z,7.30
2022-10-26T01:55:41.406Z,7.10
2022-10-26T01:58:42.832Z,7.00
2022-10-26T02:01:34.116Z,6.80
2022-10-26T02:04:20.878Z,6.80
2022-10-26T02:07:12.375Z,6.80
2022-10-26T02:09:42.500Z,6.60
2022-10-26T02:12:23.043Z,6.60
2022-10-26T02:14:57.936Z,6.40
2022-10-26T02:17:33.757Z,6.40
2022-10-26T02:20:05.610Z,6.40
2022-10-26T02:22:38.244Z,6.30
2022-10-26T02:25:09.897Z,6.50
2022-10-26T02:27:42.204Z,6.50
2022-10-26T02:30:11.168Z,6.50
2022-10-26T02:32:42.245Z,6.50
2022-10-26T02:35:11.657Z,6.80
2022-10-26T02:37:40.863Z,6.80
2022-10-26T02:40:13.442Z,6.80
2022-10-26T02:42:45.337Z,6.80
2022-10-26T02:45:18.593Z,6.70
2022-10-26T02:47:45.850Z,6.70
2022-10-26T02:50:13.571Z,6.50
2022-10-26T02:52:53.468Z,6.40
2022-10-26T02:55:25.732Z,6.50
2022-10-26T02:57:57.471Z,6.50
2022-10-26T03:00:25.078Z,6.50
2022-10-26T03:02:58.090Z,6.60
2022-10-26T03:05:32.559Z,6.60
2022-10-26T03:08:00.555Z,6.70
2022-10-26T03:10:27.754Z,6.80
2022-10-26T03:12:55.214Z,6.90
2022-10-26T03:15:22.390Z,6.90
2022-10-26T03:17:49.580Z,6.90
2022-10-26T03:20:17.042Z,7.00
2022-10-26T03:22:44.205Z,6.90
2022-10-26T03:25:11.487Z,6.90
2022-10-26T03:27:38.987Z,7.10
2022-10-26T03:30:06.767Z,7.10
2022-10-26T03:32:34.123Z,7.10
2022-10-26T03:35:01.291Z,7.00
2022-10-26T03:37:29.290Z,7.00
2022-10-26T03:39:56.535Z,7.00
2022-10-26T03:42:23.644Z,7.00
2022-10-26T03:44:50.799Z,7.00
2022-10-26T03:47:49.246Z,7.00
2022-10-26T03:50:19.279Z,6.90
2022-10-26T03:52:48.232Z,7.00
2022-10-26T03:55:16.232Z,7.00
2022-10-26T03:57:44.648Z,7.00
2022-10-26T04:00:17.445Z,7.20
2022-10-26T04:02:51.910Z,7.30
2022-10-26T04:05:19.533Z,7.30
2022-10-26T04:07:56.582Z,7.40
2022-10-26T04:10:24.858Z,7.40
2022-10-26T04:12:52.507Z,7.50
2022-10-26T04:15:20.452Z,7.50
2022-10-26T04:17:48.367Z,7.50
2022-10-26T04:20:15.859Z,7.50
2022-10-26T04:22:43.018Z,7.50
2022-10-26T04:25:11.421Z,7.50
2022-10-26T04:27:38.539Z,7.50
2022-10-26T04:30:09.942Z,7.50
2022-10-26T04:32:37.337Z,7.50
2022-10-26T04:35:04.823Z,7.60
2022-10-26T04:37:32.059Z,7.70
2022-10-26T04:39:59.279Z,7.70
2022-10-26T04:42:26.461Z,7.80
2022-10-26T04:44:53.575Z,7.90
2022-10-26T04:47:20.654Z,8.00
2022-10-26T04:49:47.957Z,8.00
2022-10-26T04:52:33.360Z,8.00
2022-10-26T04:55:00.921Z,8.10
2022-10-26T04:57:28.636Z,8.20
2022-10-26T04:59:55.931Z,8.20
2022-10-26T05:02:23.268Z,8.20
2022-10-26T05:04:50.721Z,8.20
2022-10-26T05:07:17.819Z,8.30
2022-10-26T05:09:45.175Z,8.30
2022-10-26T05:12:15.110Z,8.30
2022-10-26T05:14:42.351Z,8.30
2022-10-26T05:17:09.487Z,8.30
2022-10-26T05:19:36.684Z,8.40
2022-10-26T05:22:06.595Z,8.50
2022-10-26T05:24:33.748Z,8.60
2022-10-26T05:27:03.837Z,8.60
2022-10-26T05:29:30.983Z,8.60
2022-10-26T05:32:01.003Z,8.50
2022-10-26T05:34:28.163Z,8.50
2022-10-26T05:36:55.272Z,8.50
2022-10-26T05:39:22.744Z,8.50
2022-10-26T05:41:52.919Z,8.50
2022-10-26T05:44:20.033Z,8.40
2022-10-26T05:46:47.522Z,8.40
2022-10-26T05:49:15.819Z,8.40
2022-10-26T05:51:43.002Z,8.50
2022-10-26T05:54:13.612Z,8.50
2022-10-26T05:56:41.945Z,8.50
2022-10-26T05:59:15.125Z,8.60
2022-10-26T06:02:00.885Z,8.60
2022-10-26T06:04:41.562Z,8.70
2022-10-26T06:07:14.338Z,8.80
2022-10-26T06:09:42.611Z,8.90
2022-10-26T06:12:12.637Z,9.00
2022-10-26T06:14:42.904Z,9.10
2022-10-26T06:17:31.918Z,9.20
2022-10-26T06:20:08.723Z,9.20
2022-10-26T06:22:50.408Z,9.30
2022-10-26T06:25:39.000Z,9.40
2022-10-26T06:28:27.712Z,9.50
2022-10-26T06:30:56.322Z,9.50
2022-10-26T06:33:29.324Z,9.60
2022-10-26T06:36:20.138Z,9.70
2022-10-26T06:38:49.690Z,9.70
2022-10-26T06:41:19.381Z,9.70
2022-10-26T06:43:46.915Z,9.80
2022-10-26T06:46:39.080Z,9.90
2022-10-26T06:49:12.196Z,9.90
2022-10-26T06:52:08.510Z,10.00
2022-10-26T06:54:53.235Z,10.00
2022-10-26T06:57:23.027Z,10.10
2022-10-26T06:59:53.771Z,10.20
2022-10-26T07:02:21.310Z,10.30
2022-10-26T07:04:48.763Z,10.40
2022-10-26T07:07:21.916Z,10.50
2022-10-26T07:09:49.437Z,10.60
2022-10-26T07:12:16.849Z,10.70
2022-10-26T07:14:44.819Z,10.80
2022-10-26T07:17:12.406Z,10.90
2022-10-26T07:19:40.616Z,11.00
2022-10-26T07:22:07.827Z,11.20
2022-10-26T07:24:34.963Z,11.30
2022-10-26T07:27:02.409Z,11.30
2022-10-26T07:29:29.720Z,11.30
2022-10-26T07:31:56.886Z,11.40
2022-10-26T07:34:24.323Z,11.50
2022-10-26T07:36:51.794Z,11.50
2022-10-26T07:39:19.009Z,11.70
2022-10-26T07:41:47.250Z,11.80
2022-10-26T07:44:17.339Z,11.80
2022-10-26T07:46:45.011Z,11.90
2022-10-26T07:49:12.973Z,11.90
2022-10-26T07:51:40.838Z,12.00
2022-10-26T07:54:10.752Z,12.00
2022-10-26T07:56:37.974Z,12.10
2022-10-26T07:59:05.182Z,12.10
2022-10-26T08:01:32.529Z,12.20
2022-10-26T08:03:59.894Z,12.30
2022-10-26T08:06:27.012Z,12.40
2022-10-26T08:08:54.217Z,12.40
2022-10-26T08:11:21.660Z,12.50
2022-10-26T08:13:53.216Z,12.60
2022-10-26T08:16:20.955Z,12.70
2022-10-26T08:18:50.266Z,12.70
2022-10-26T08:21:22.217Z,12.70
2022-10-26T08:24:02.833Z,12.90
2022-10-26T08:26:30.704Z,13.00
2022-10-26T08:28:57.869Z,13.20
2022-10-26T08:31:25.064Z,13.40
2022-10-26T08:33:52.198Z,13.50
2022-10-26T08:36:28.610Z,13.70
2022-10-26T08:38:55.901Z,13.80
2022-10-26T08:41:42.267Z,13.80
2022-10-26T08:44:21.413Z,13.90
2022-10-26T08:46:53.538Z,13.90
2022-10-26T08:49:25.350Z,13.80
2022-10-26T08:51:59.772Z,13.90
2022-10-26T08:54:50.852Z,13.90
2022-10-26T08:57:41.391Z,14.00
2022-10-26T09:00:15.235Z,14.10
2022-10-26T09:02:42.498Z,14.10
2022-10-26T09:05:18.726Z,14.30
2022-10-26T09:08:00.166Z,14.50
2022-10-26T09:11:08.485Z,14.80
2022-10-26T09:14:00.052Z,15.10
2022-10-26T09:17:04.998Z,15.40
2022-10-26T09:19:50.578Z,15.50
2022-10-26T09:22:37.972Z,15.50
2022-10-26T09:25:27.335Z,15.50
2022-10-26T09:28:01.199Z,15.40
2022-10-26T09:30:30.404Z,15.40
2022-10-26T09:33:08.938Z,15.50
2022-10-26T09:36:17.221Z,15.60
2022-10-26T09:39:03.187Z,15.70
2022-10-26T09:41:39.092Z,15.90
2022-10-26T09:44:09.082Z,16.00
2022-10-26T09:46:45.093Z,16.10
2022-10-26T09:49:15.304Z,15.90
2022-10-26T09:51:45.122Z,15.80
2022-10-26T09:54:18.269Z,15.80
2022-10-26T09:56:49.733Z,15.70
2022-10-26T09:59:21.328Z,15.70
2022-10-26T10:01:48.569Z,15.70
2022-10-26T10:04:26.017Z,15.80
2022-10-26T10:07:15.633Z,16.00
2022-10-26T10:09:42.850Z,16.30
2022-10-26T10:12:20.613Z,16.40
2022-10-26T10:14:59.095Z,16.70
2022-10-26T10:17:27.102Z,16.80
2022-10-26T10:19:54.777Z,16.70
2022-10-26T10:22:25.816Z,16.70
2022-10-26T10:24:57.073Z,16.90
2022-10-26T10:27:25.219Z,17.20
2022-10-26T10:30:01.362Z,17.60
2022-10-26T10:32:35.717Z,17.60
2022-10-26T10:35:24.014Z,17.70
2022-10-26T10:37:51.995Z,18.00
2022-10-26T10:40:25.576Z,18.00
2022-10-26T10:43:02.757Z,18.20
2022-10-26T10:45:31.291Z,18.00
2022-10-26T10:48:22.494Z,17.80
2022-10-26T10:50:59.478Z,18.30
2022-10-26T10:53:26.596Z,18.60
2022-10-26T10:56:04.447Z,18.70
2022-10-26T10:58:47.447Z,18.80
2022-10-26T11:01:20.915Z,18.80
2022-10-26T11:04:09.942Z,18.80
2022-10-26T11:06:40.782Z,18.80
2022-10-26T11:09:09.908Z,18.80
2022-10-26T11:11:46.076Z,18.80
2022-10-26T11:14:25.204Z,18.80
2022-10-26T11:17:26.072Z,18.60
2022-10-26T11:20:03.578Z,18.60
2022-10-26T11:22:40.615Z,18.60
2022-10-26T11:25:28.408Z,18.50
2022-10-26T11:28:00.830Z,18.20
2022-10-26T11:30:30.741Z,18.20
2022-10-26T11:33:03.619Z,18.10
2022-10-26T11:35:37.676Z,18.00
2022-10-26T11:38:27.960Z,18.20
2022-10-26T11:41:27.009Z,18.40
2022-10-26T11:44:03.567Z,18.50
2022-10-26T11:47:08.381Z,18.60
2022-10-26T11:49:42.603Z,18.80
2022-10-26T11:52:18.331Z,18.70
2022-10-26T11:54:53.355Z,18.80
2022-10-26T11:57:23.551Z,18.80
2022-10-26T12:00:03.935Z,18.80
2022-10-26T12:02:33.883Z,18.90
2022-10-26T12:05:08.691Z,18.90
2022-10-26T12:07:40.347Z,19.00
2022-10-26T12:10:24.606Z,19.10
2022-10-26T12:12:59.944Z,19.10
2022-10-26T12:16:03.627Z,19.00
2022-10-26T12:18:54.598Z,19.10
2022-10-26T12:21:29.161Z,19.20
2022-10-26T12:23:59.525Z,19.10
2022-10-26T12:26:26.654Z,19.20
2022-10-26T12:29:02.877Z,19.20
2022-10-26T12:31:33.620Z,19.10
2022-10-26T12:34:01.158Z,19.20
2022-10-26T12:36:56.054Z,19.20
2022-10-26T12:39:42.722Z,19.20
2022-10-26T12:42:28.850Z,19.30
2022-10-26T12:44:58.964Z,19.20
2022-10-26T12:47:29.180Z,19.20
2022-10-26T12:50:23.272Z,19.10
2022-10-26T12:52:57.356Z,19.00
2022-10-26T12:55:46.203Z,18.90
2022-10-26T12:58:41.580Z,18.70
2022-10-26T13:01:32.630Z,18.60
2022-10-26T13:04:15.295Z,18.50
2022-10-26T13:06:55.231Z,18.30
2022-10-26T13:09:27.683Z,18.30
2022-10-26T13:11:57.359Z,18.10
2022-10-26T13:14:35.090Z,18.10
2022-10-26T13:17:05.653Z,17.90
2022-10-26T13:19:45.026Z,17.80
2022-10-26T13:22:22.181Z,17.90
2022-10-26T13:24:54.346Z,17.90
2022-10-26T13:27:40.776Z,17.90
2022-10-26T13:30:34.747Z,17.80
2022-10-26T13:33:04.080Z,18.00
2022-10-26T13:35:31.965Z,18.20
2022-10-26T13:38:08.084Z,18.40
2022-10-26T13:40:38.274Z,18.40
2022-10-26T13:43:11.755Z,18.50
2022-10-26T13:45:50.685Z,18.60
2022-10-26T13:48:33.484Z,18.80
2022-10-26T13:51:05.367Z,18.80
2022-10-26T13:53:54.466Z,18.90
2022-10-26T13:56:22.003Z,19.00
2022-10-26T13:59:09.818Z,19.10
2022-10-26T14:01:37.152Z,19.10
2022-10-26T14:04:18.661Z,19.10
2022-10-26T14:06:51.682Z,19.10
2022-10-26T14:09:21.678Z,19.00
2022-10-26T14:12:01.913Z,19.10
2022-10-26T14:14:33.472Z,19.00
2022-10-26T14:17:01.572Z,18.70
2022-10-26T14:19:31.170Z,18.50
2022-10-26T14:21:59.032Z,18.40
2022-10-26T14:24:46.105Z,18.40
2022-10-26T14:27:18.317Z,18.20
2022-10-26T14:29:49.936Z,18.00
2022-10-26T14:32:36.758Z,18.00
2022-10-26T14:35:04.059Z,17.80
2022-10-26T14:37:31.316Z,17.60
2022-10-26T14:39:58.757Z,17.50
2022-10-26T14:42:39.784Z,17.30
2022-10-26T14:45:29.501Z,17.20
2022-10-26T14:47:57.556Z,17.10
2022-10-26T14:50:31.163Z,16.90
2022-10-26T14:53:02.478Z,16.90
2022-10-26T14:55:31.034Z,16.80
2022-10-26T14:58:16.786Z,16.90
2022-10-26T15:00:44.835Z,16.90
2022-10-26T15:03:17.414Z,16.80
2022-10-26T15:05:44.795Z,16.70
2022-10-26T15:09:00.407Z,16.60
2022-10-26T15:11:29.268Z,16.60
2022-10-26T15:13:58.150Z,16.60
2022-10-26T15:16:32.128Z,16.60
2022-10-26T15:19:09.766Z,16.50
2022-10-26T15:21:47.716Z,16.40
2022-10-26T15:24:24.822Z,16.30
2022-10-26T15:26:52.348Z,16.30
2022-10-26T15:29:44.980Z,16.20
2022-10-26T15:32:33.085Z,16.10
2022-10-26T15:35:28.871Z,15.90
2022-10-26T15:37:57.618Z,15.80
2022-10-26T15:43:00.191Z,15.50
2022-10-26T15:45:34.063Z,15.30
2022-10-26T15:48:18.399Z,15.10
2022-10-26T15:50:45.482Z,14.90
2022-10-26T15:53:19.439Z,14.80
2022-10-26T15:55:47.282Z,14.60
2022-10-26T15:58:15.589Z,14.50
2022-10-26T16:00:42.822Z,14.30
2022-10-26T16:03:15.324Z,14.20
2022-10-26T16:05:42.572Z,14.10
2022-10-26T16:08:17.766Z,13.90
2022-10-26T16:10:46.549Z,13.80
2022-10-26T16:13:15.141Z,13.60
2022-10-26T16:15:42.717Z,13.50
2022-10-26T16:18:09.902Z,13.40
2022-10-26T16:20:37.579Z,13.40
2022-10-26T16:23:07.579Z,13.20
2022-10-26T16:25:40.800Z,13.20
2022-10-26T16:28:09.554Z,13.20
2022-10-26T16:30:36.994Z,13.20
2022-10-26T16:33:04.187Z,13.10
2022-10-26T16:35:31.367Z,13.00
2022-10-26T16:37:58.475Z,12.90
2022-10-26T16:40:26.697Z,12.70
2022-10-26T16:42:53.897Z,12.70
2022-10-26T16:45:21.007Z,12.70
2022-10-26T16:47:48.441Z,12.60
2022-10-26T16:50:16.046Z,12.60
2022-10-26T16:52:43.223Z,12.60
2022-10-26T16:55:10.435Z,12.60
2022-10-26T16:57:37.773Z,12.50
2022-10-26T17:00:06.559Z,12.50
2022-10-26T17:02:33.840Z,12.40
2022-10-26T17:05:04.262Z,12.30
2022-10-26T17:07:34.325Z,12.10
2022-10-26T17:10:01.520Z,12.00
2022-10-26T17:12:28.713Z,11.90
2022-10-26T17:14:58.572Z,11.80
2022-10-26T17:17:25.879Z,11.70
2022-10-26T17:19:53.181Z,11.70
2022-10-26T17:22:20.290Z,11.80
2022-10-26T17:24:47.405Z,11.80
2022-10-26T17:27:14.587Z,11.80
2022-10-26T17:29:42.040Z,11.70
2022-10-26T17:32:09.319Z,11.80
2022-10-26T17:34:36.420Z,11.90
2022-10-26T17:37:03.650Z,12.00
2022-10-26T17:39:30.826Z,11.90
2022-10-26T17:41:59.283Z,11.90
2022-10-26T17:44:26.470Z,11.90
2022-10-26T17:46:53.648Z,11.80
2022-10-26T17:49:24.828Z,11.80
2022-10-26T17:51:54.191Z,11.80
2022-10-26T17:54:21.633Z,11.90
2022-10-26T17:56:49.135Z,11.90
2022-10-26T17:59:17.649Z,12.00
2022-10-26T18:01:45.055Z,12.10
2022-10-26T18:04:12.302Z,12.10
2022-10-26T18:06:39.684Z,12.10
2022-10-26T18:09:06.780Z,12.10
2022-10-26T18:11:34.088Z,12.20
2022-10-26T18:14:01.170Z,12.20
2022-10-26T18:16:29.120Z,12.30
2022-10-26T18:19:01.886Z,12.30
2022-10-26T18:21:34.460Z,12.30
2022-10-26T18:24:01.624Z,12.30
2022-10-26T18:26:30.143Z,12.30
2022-10-26T18:28:59.032Z,12.30
2022-10-26T18:31:27.288Z,12.40
2022-10-26T18:33:56.334Z,12.50
2022-10-26T18:36:23.601Z,12.40
2022-10-26T18:38:50.774Z,12.30
2022-10-26T18:41:19.950Z,12.30
2022-10-26T18:43:51.888Z,12.20
2022-10-26T18:46:24.306Z,12.10
2022-10-26T18:48:55.648Z,12.10
2022-10-26T18:51:25.374Z,12.10
2022-10-26T18:53:52.622Z,12.10
2022-10-26T18:56:21.723Z,12.10
2022-10-26T18:58:50.607Z,12.10
2022-10-26T19:01:23.771Z,12.20
2022-10-26T19:04:02.692Z,12.20
2022-10-26T19:06:35.078Z,12.10
2022-10-26T19:09:03.234Z,12.00
2022-10-26T19:11:31.640Z,11.90
2022-10-26T19:13:59.079Z,11.80
2022-10-26T19:19:17.021Z,11.60
2022-10-26T19:21:46.244Z,11.60
2022-10-26T19:24:19.059Z,11.60
2022-10-26T19:26:48.174Z,11.60
2022-10-26T19:29:16.992Z,11.60
2022-10-26T19:31:45.674Z,11.50
2022-10-26T19:34:14.599Z,11.60
2022-10-26T19:36:44.939Z,11.80
2022-10-26T19:39:16.905Z,12.00
2022-10-26T19:41:45.740Z,12.10
2022-10-26T19:44:14.443Z,12.20
2022-10-26T19:46:43.269Z,12.30
2022-10-26T19:49:12.524Z,12.20
2022-10-26T19:51:39.781Z,12.20
2022-10-26T19:54:07.567Z,12.10
2022-10-26T19:56:36.464Z,12.10
2022-10-26T19:59:03.915Z,12.00
2022-10-26T20:01:31.650Z,12.00
2022-10-26T20:03:58.795Z,11.90
2022-10-26T20:06:26.076Z,11.90
2022-10-26T20:08:53.389Z,11.90
2022-10-26T20:11:20.827Z,11.90
2022-10-26T20:13:48.223Z,11.80
2022-10-26T20:16:16.928Z,11.80
2022-10-26T20:18:47.860Z,11.70
2022-10-26T20:21:17.477Z,11.70
2022-10-26T20:23:45.541Z,11.70
2022-10-26T20:26:18.984Z,11.70
2022-10-26T20:28:49.065Z,11.60
2022-10-26T20:31:16.571Z,11.60
2022-10-26T20:33:43.702Z,11.50
2022-10-26T20:36:11.095Z,11.50
2022-10-26T20:38:39.416Z,11.50
2022-10-26T20:41:12.074Z,11.50
2022-10-26T20:43:40.513Z,11.50
2022-10-26T20:46:11.278Z,11.50
2022-10-26T20:48:38.852Z,11.60
2022-10-26T20:51:19.666Z,11.50
2022-10-26T20:53:53.710Z,11.60
2022-10-26T20:56:25.896Z,11.70
2022-10-26T20:58:57.772Z,11.60
2022-10-26T21:01:33.585Z,11.60
2022-10-26T21:04:03.280Z,11.50
2022-10-26T21:06:39.870Z,11.40
2022-10-26T21:09:08.230Z,11.40
2022-10-26T21:11:35.732Z,11.40
2022-10-26T21:14:05.138Z,11.40
2022-10-26T21:16:32.440Z,11.20
2022-10-26T21:19:00.381Z,11.20
2022-10-26T21:21:27.744Z,11.20
2022-10-26T21:23:54.984Z,11.10
2022-10-26T21:26:22.192Z,11.00
2022-10-26T21:28:49.626Z,10.90
2022-10-26T21:31:18.727Z,10.80
2022-10-26T21:33:46.833Z,10.70
2022-10-26T21:36:14.980Z,10.70
2022-10-26T21:38:44.233Z,10.60
2022-10-26T21:41:15.337Z,10.50
2022-10-26T21:43:46.012Z,10.40
2022-10-26T21:46:15.051Z,10.40
2022-10-26T21:48:43.017Z,10.40
2022-10-26T21:51:18.566Z,10.40
2022-10-26T21:53:47.460Z,10.30
2022-10-26T21:56:17.799Z,10.30
2022-10-26T21:58:45.783Z,10.20
2022-10-26T22:01:15.723Z,10.10
2022-10-26T22:03:43.714Z,10.10
2022-10-26T22:06:12.850Z,10.10
2022-10-26T22:08:40.371Z,10.10
2022-10-26T22:11:16.347Z,10.20
2022-10-26T22:13:44.650Z,10.20
2022-10-26T22:16:19.527Z,10.10
2022-10-26T22:18:47.975Z,10.20
2022-10-26T22:21:16.655Z,10.20
2022-10-26T22:23:44.008Z,10.10
2022-10-26T22:26:17.162Z,10.10
2022-10-26T22:28:45.793Z,10.00
2022-10-26T22:31:19.259Z,9.90
2022-10-26T22:33:50.788Z,9.90
2022-10-26T22:36:18.044Z,9.80
2022-10-26T22:38:45.453Z,9.80
2022-10-26T22:41:12.873Z,10.00
2022-10-26T22:43:40.042Z,9.90
2022-10-26T22:46:15.699Z,9.90
2022-10-26T22:48:45.441Z,9.90
2022-10-26T22:51:19.803Z,10.00
2022-10-26T22:53:50.999Z,10.10
2022-10-26T22:56:18.158Z,10.00
2022-10-26T22:58:45.321Z,9.90
2022-10-26T23:01:17.800Z,9.80
2022-10-26T23:03:45.440Z,9.80
2022-10-26T23:06:15.238Z,9.70
2022-10-26T23:08:43.064Z,9.60
2022-10-26T23:11:13.342Z,9.50
2022-10-26T23:13:40.779Z,9.40
2022-10-26T23:16:17.940Z,9.30
2022-10-26T23:18:45.404Z,9.30
2022-10-26T23:21:13.666Z,9.30
2022-10-26T23:23:41.568Z,9.20
2022-10-26T23:26:14.556Z,9.20
2022-10-26T23:28:42.643Z,9.30
2022-10-26T23:31:16.285Z,9.20
2022-10-26T23:33:44.156Z,9.20
2022-10-26T23:36:11.486Z,9.30
2022-10-26T23:38:38.676Z,9.20
2022-10-26T23:41:08.225Z,9.20
2022-10-26T23:43:37.978Z,9.20
2022-10-26T23:46:05.589Z,9.10
2022-10-26T23:48:32.750Z,9.10
2022-10-26T23:50:59.901Z,9.00
2022-10-26T23:53:27.185Z,9.00
2022-10-26T23:55:54.431Z,8.90
2022-10-26T23:58:21.726Z,8.90
